sensor_id;sensor_type;location;lat;lon;timestamp;temperature;humidity
43607;DHT22;29197;44.788;10.366;2022-08-14T00:02:17;24.40;99.90
43607;DHT22;29197;44.788;10.366;2022-08-14T00:05:08;24.50;99.90
43607;DHT22;29197;44.788;10.366;2022-08-14T00:07:58;24.50;99.90
43607;DHT22;29197;44.788;10.366;2022-08-14T00:10:48;24.40;99.90
43607;DHT22;29197;44.788;10.366;2022-08-14T00:13:39;24.40;99.90
43607;DHT22;29197;44.788;10.366;2022-08-14T00:16:38;24.40;99.90
43607;DHT22;29197;44.788;10.366;2022-08-14T00:19:31;24.40;99.80
43607;DHT22;29197;44.788;10.366;2022-08-14T00:22:21;24.40;99.80
43607;DHT22;29197;44.788;10.366;2022-08-14T00:25:32;24.30;99.80
43607;DHT22;29197;44.788;10.366;2022-08-14T00:28:28;24.00;99.70
43607;DHT22;29197;44.788;10.366;2022-08-14T00:31:22;23.60;99.90
43607;DHT22;29197;44.788;10.366;2022-08-14T00:34:32;23.70;99.90
43607;DHT22;29197;44.788;10.366;2022-08-14T00:37:32;23.80;99.90
43607;DHT22;29197;44.788;10.366;2022-08-14T00:40:22;23.90;99.90
43607;DHT22;29197;44.788;10.366;2022-08-14T00:43:21;24.00;99.90
43607;DHT22;29197;44.788;10.366;2022-08-14T00:46:10;24.00;99.90
43607;DHT22;29197;44.788;10.366;2022-08-14T00:49:19;24.10;99.90
43607;DHT22;29197;44.788;10.366;2022-08-14T00:52:11;24.10;99.90
43607;DHT22;29197;44.788;10.366;2022-08-14T00:55:06;24.10;99.90
43607;DHT22;29197;44.788;10.366;2022-08-14T00:58:00;24.10;99.90
43607;DHT22;29197;44.788;10.366;2022-08-14T01:01:20;24.10;99.80
43607;DHT22;29197;44.788;10.366;2022-08-14T01:04:10;24.00;99.70
43607;DHT22;29197;44.788;10.366;2022-08-14T01:07:20;23.90;99.70
43607;DHT22;29197;44.788;10.366;2022-08-14T01:10:09;23.80;99.80
43607;DHT22;29197;44.788;10.366;2022-08-14T01:13:02;23.80;99.70
43607;DHT22;29197;44.788;10.366;2022-08-14T01:15:53;23.70;99.50
43607;DHT22;29197;44.788;10.366;2022-08-14T01:18:50;23.70;99.70
43607;DHT22;29197;44.788;10.366;2022-08-14T01:21:58;23.70;99.40
43607;DHT22;29197;44.788;10.366;2022-08-14T01:24:47;23.70;99.00
43607;DHT22;29197;44.788;10.366;2022-08-14T01:27:38;23.70;98.90
43607;DHT22;29197;44.788;10.366;2022-08-14T01:30:44;23.50;98.60
43607;DHT22;29197;44.788;10.366;2022-08-14T01:33:35;23.00;98.90
43607;DHT22;29197;44.788;10.366;2022-08-14T01:36:46;22.90;99.30
43607;DHT22;29197;44.788;10.366;2022-08-14T01:39:37;22.80;99.30
43607;DHT22;29197;44.788;10.366;2022-08-14T01:42:28;22.70;99.20
43607;DHT22;29197;44.788;10.366;2022-08-14T01:45:23;22.60;99.20
43607;DHT22;29197;44.788;10.366;2022-08-14T01:48:12;22.40;99.90
43607;DHT22;29197;44.788;10.366;2022-08-14T01:51:07;22.00;99.80
43607;DHT22;29197;44.788;10.366;2022-08-14T01:54:07;21.90;99.90
43607;DHT22;29197;44.788;10.366;2022-08-14T01:57:02;21.80;99.80
43607;DHT22;29197;44.788;10.366;2022-08-14T01:59:58;21.80;99.90
43607;DHT22;29197;44.788;10.366;2022-08-14T02:02:49;21.70;99.80
43607;DHT22;29197;44.788;10.366;2022-08-14T02:05:39;21.50;99.90
43607;DHT22;29197;44.788;10.366;2022-08-14T02:08:29;21.40;99.90
43607;DHT22;29197;44.788;10.366;2022-08-14T02:11:22;21.40;99.90
43607;DHT22;29197;44.788;10.366;2022-08-14T02:14:13;21.60;99.90
43607;DHT22;29197;44.788;10.366;2022-08-14T02:17:18;21.80;99.90
43607;DHT22;29197;44.788;10.366;2022-08-14T02:20:09;22.00;99.90
43607;DHT22;29197;44.788;10.366;2022-08-14T02:23:00;22.20;99.90
43607;DHT22;29197;44.788;10.366;2022-08-14T02:25:49;22.40;99.90
43607;DHT22;29197;44.788;10.366;2022-08-14T02:28:41;22.50;99.90
43607;DHT22;29197;44.788;10.366;2022-08-14T02:31:48;22.60;99.90
43607;DHT22;29197;44.788;10.366;2022-08-14T02:34:38;22.70;99.90
43607;DHT22;29197;44.788;10.366;2022-08-14T02:40:34;22.80;99.10
43607;DHT22;29197;44.788;10.366;2022-08-14T02:43:25;22.90;99.20
43607;DHT22;29197;44.788;10.366;2022-08-14T02:46:32;23.00;98.70
43607;DHT22;29197;44.788;10.366;2022-08-14T02:49:28;22.80;98.40
43607;DHT22;29197;44.788;10.366;2022-08-14T02:52:21;22.80;98.40
43607;DHT22;29197;44.788;10.366;2022-08-14T02:55:30;22.70;98.50
43607;DHT22;29197;44.788;10.366;2022-08-14T02:58:21;22.70;98.40
43607;DHT22;29197;44.788;10.366;2022-08-14T03:01:19;22.70;98.50
43607;DHT22;29197;44.788;10.366;2022-08-14T03:04:12;22.80;98.50
43607;DHT22;29197;44.788;10.366;2022-08-14T03:07:05;22.90;98.40
43607;DHT22;29197;44.788;10.366;2022-08-14T03:09:56;23.00;98.00
43607;DHT22;29197;44.788;10.366;2022-08-14T03:13:05;22.50;97.90
43607;DHT22;29197;44.788;10.366;2022-08-14T03:16:08;22.40;97.90
43607;DHT22;29197;44.788;10.366;2022-08-14T03:51:17;22.50;99.90
43607;DHT22;29197;44.788;10.366;2022-08-14T03:54:07;22.60;99.90
43607;DHT22;29197;44.788;10.366;2022-08-14T03:57:08;22.70;99.90
43607;DHT22;29197;44.788;10.366;2022-08-14T03:59:57;22.30;99.90
43607;DHT22;29197;44.788;10.366;2022-08-14T04:02:49;22.20;99.90
43607;DHT22;29197;44.788;10.366;2022-08-14T04:05:39;22.40;99.90
43607;DHT22;29197;44.788;10.366;2022-08-14T04:08:36;22.50;99.90
43607;DHT22;29197;44.788;10.366;2022-08-14T04:11:28;22.40;99.90
43607;DHT22;29197;44.788;10.366;2022-08-14T04:14:18;22.40;99.90
43607;DHT22;29197;44.788;10.366;2022-08-14T04:17:10;22.40;99.90
43607;DHT22;29197;44.788;10.366;2022-08-14T04:19:59;22.40;99.90
43607;DHT22;29197;44.788;10.366;2022-08-14T04:22:50;22.60;99.90
43607;DHT22;29197;44.788;10.366;2022-08-14T04:25:42;22.70;99.90
43607;DHT22;29197;44.788;10.366;2022-08-14T04:28:33;22.80;98.60
43607;DHT22;29197;44.788;10.366;2022-08-14T04:31:44;22.80;98.50
43607;DHT22;29197;44.788;10.366;2022-08-14T04:34:56;22.80;98.70
43607;DHT22;29197;44.788;10.366;2022-08-14T04:37:46;22.90;98.90
43607;DHT22;29197;44.788;10.366;2022-08-14T04:41:12;22.90;98.90
43607;DHT22;29197;44.788;10.366;2022-08-14T04:44:18;22.90;98.80
43607;DHT22;29197;44.788;10.366;2022-08-14T04:47:24;22.90;98.60
43607;DHT22;29197;44.788;10.366;2022-08-14T04:50:33;22.80;98.40
43607;DHT22;29197;44.788;10.366;2022-08-14T04:53:32;22.60;98.50
43607;DHT22;29197;44.788;10.366;2022-08-14T04:56:27;22.30;98.10
43607;DHT22;29197;44.788;10.366;2022-08-14T04:59:21;22.00;99.90
43607;DHT22;29197;44.788;10.366;2022-08-14T05:02:10;22.30;99.90
43607;DHT22;29197;44.788;10.366;2022-08-14T05:05:02;22.40;99.90
43607;DHT22;29197;44.788;10.366;2022-08-14T05:07:52;22.60;99.00
43607;DHT22;29197;44.788;10.366;2022-08-14T05:10:49;22.70;98.80
43607;DHT22;29197;44.788;10.366;2022-08-14T05:13:40;22.70;98.50
43607;DHT22;29197;44.788;10.366;2022-08-14T05:40:10;22.50;99.90
43607;DHT22;29197;44.788;10.366;2022-08-14T05:43:00;22.50;99.90
43607;DHT22;29197;44.788;10.366;2022-08-14T05:45:53;22.60;99.90
43607;DHT22;29197;44.788;10.366;2022-08-14T05:48:47;22.70;99.90
43607;DHT22;29197;44.788;10.366;2022-08-14T06:31:59;22.60;99.90
43607;DHT22;29197;44.788;10.366;2022-08-14T06:35:09;22.40;99.90
43607;DHT22;29197;44.788;10.366;2022-08-14T06:38:00;22.60;99.90
43607;DHT22;29197;44.788;10.366;2022-08-14T06:40:51;22.90;99.90
43607;DHT22;29197;44.788;10.366;2022-08-14T06:43:40;23.10;99.90
43607;DHT22;29197;44.788;10.366;2022-08-14T06:46:35;23.10;99.90
43607;DHT22;29197;44.788;10.366;2022-08-14T06:49:26;23.40;99.90
43607;DHT22;29197;44.788;10.366;2022-08-14T06:52:16;23.50;99.90
43607;DHT22;29197;44.788;10.366;2022-08-14T06:55:09;23.70;99.90
43607;DHT22;29197;44.788;10.366;2022-08-14T07:00:49;24.20;99.90
43607;DHT22;29197;44.788;10.366;2022-08-14T07:03:56;24.40;99.90
43607;DHT22;29197;44.788;10.366;2022-08-14T07:07:11;24.60;99.90
43607;DHT22;29197;44.788;10.366;2022-08-14T07:10:00;24.80;99.90
43607;DHT22;29197;44.788;10.366;2022-08-14T07:12:51;25.00;99.90
43607;DHT22;29197;44.788;10.366;2022-08-14T07:15:53;25.00;99.90
43607;DHT22;29197;44.788;10.366;2022-08-14T07:21:37;25.20;99.90
43607;DHT22;29197;44.788;10.366;2022-08-14T07:24:28;25.40;99.80
43607;DHT22;29197;44.788;10.366;2022-08-14T07:27:18;25.50;99.40
43607;DHT22;29197;44.788;10.366;2022-08-14T07:30:09;25.60;99.00
43607;DHT22;29197;44.788;10.366;2022-08-14T07:33:19;25.70;99.00
43607;DHT22;29197;44.788;10.366;2022-08-14T07:36:15;25.80;99.00
43607;DHT22;29197;44.788;10.366;2022-08-14T07:39:17;25.80;99.20
43607;DHT22;29197;44.788;10.366;2022-08-14T07:42:15;25.70;99.40
43607;DHT22;29197;44.788;10.366;2022-08-14T07:45:09;25.80;99.60
43607;DHT22;29197;44.788;10.366;2022-08-14T07:47:59;25.90;99.60
43607;DHT22;29197;44.788;10.366;2022-08-14T07:50:51;26.00;99.10
43607;DHT22;29197;44.788;10.366;2022-08-14T07:53:50;26.10;98.70
43607;DHT22;29197;44.788;10.366;2022-08-14T07:56:43;26.10;98.70
43607;DHT22;29197;44.788;10.366;2022-08-14T07:59:39;26.10;99.00
43607;DHT22;29197;44.788;10.366;2022-08-14T08:02:33;26.20;98.70
43607;DHT22;29197;44.788;10.366;2022-08-14T08:05:26;26.20;98.50
43607;DHT22;29197;44.788;10.366;2022-08-14T08:08:16;26.20;98.10
43607;DHT22;29197;44.788;10.366;2022-08-14T08:11:14;26.20;98.40
43607;DHT22;29197;44.788;10.366;2022-08-14T08:14:06;26.20;99.10
43607;DHT22;29197;44.788;10.366;2022-08-14T08:17:05;26.20;99.30
43607;DHT22;29197;44.788;10.366;2022-08-14T08:19:54;26.30;98.80
43607;DHT22;29197;44.788;10.366;2022-08-14T08:22:43;26.30;98.40
43607;DHT22;29197;44.788;10.366;2022-08-14T08:25:37;26.40;98.30
43607;DHT22;29197;44.788;10.366;2022-08-14T08:28:28;26.40;98.00
43607;DHT22;29197;44.788;10.366;2022-08-14T08:31:20;26.30;97.70
43607;DHT22;29197;44.788;10.366;2022-08-14T08:34:20;26.30;98.00
43607;DHT22;29197;44.788;10.366;2022-08-14T08:37:10;26.30;97.90
43607;DHT22;29197;44.788;10.366;2022-08-14T08:39:59;26.30;97.70
43607;DHT22;29197;44.788;10.366;2022-08-14T08:42:52;26.20;97.90
43607;DHT22;29197;44.788;10.366;2022-08-14T08:45:52;26.20;97.90
43607;DHT22;29197;44.788;10.366;2022-08-14T08:48:46;26.30;97.90
43607;DHT22;29197;44.788;10.366;2022-08-14T08:51:40;26.40;97.80
43607;DHT22;29197;44.788;10.366;2022-08-14T08:54:29;26.50;98.00
43607;DHT22;29197;44.788;10.366;2022-08-14T08:57:18;26.60;97.80
43607;DHT22;29197;44.788;10.366;2022-08-14T09:00:15;26.60;98.30
43607;DHT22;29197;44.788;10.366;2022-08-14T09:03:15;26.70;98.80
43607;DHT22;29197;44.788;10.366;2022-08-14T09:06:07;26.80;99.00
43607;DHT22;29197;44.788;10.366;2022-08-14T09:09:24;26.90;98.10
43607;DHT22;29197;44.788;10.366;2022-08-14T09:12:34;27.10;97.80
43607;DHT22;29197;44.788;10.366;2022-08-14T09:15:23;27.20;97.80
43607;DHT22;29197;44.788;10.366;2022-08-14T09:18:22;27.20;97.90
43607;DHT22;29197;44.788;10.366;2022-08-14T09:21:13;27.30;99.10
43607;DHT22;29197;44.788;10.366;2022-08-14T09:24:04;27.40;99.00
43607;DHT22;29197;44.788;10.366;2022-08-14T09:27:14;27.40;98.40
43607;DHT22;29197;44.788;10.366;2022-08-14T09:30:10;27.50;98.10
43607;DHT22;29197;44.788;10.366;2022-08-14T09:33:33;27.60;97.00
43607;DHT22;29197;44.788;10.366;2022-08-14T09:36:52;27.60;97.00
43607;DHT22;29197;44.788;10.366;2022-08-14T09:39:54;27.70;96.50
43607;DHT22;29197;44.788;10.366;2022-08-14T09:45:45;27.80;95.90
43607;DHT22;29197;44.788;10.366;2022-08-14T09:48:40;28.00;94.80
43607;DHT22;29197;44.788;10.366;2022-08-14T09:51:29;27.90;95.80
43607;DHT22;29197;44.788;10.366;2022-08-14T09:54:41;28.00;95.90
43607;DHT22;29197;44.788;10.366;2022-08-14T09:57:34;28.00;95.60
43607;DHT22;29197;44.788;10.366;2022-08-14T10:00:41;28.10;95.90
43607;DHT22;29197;44.788;10.366;2022-08-14T10:03:34;28.20;95.90
43607;DHT22;29197;44.788;10.366;2022-08-14T10:06:27;28.30;95.20
43607;DHT22;29197;44.788;10.366;2022-08-14T10:09:18;28.40;95.00
43607;DHT22;29197;44.788;10.366;2022-08-14T10:12:07;28.50;95.50
43607;DHT22;29197;44.788;10.366;2022-08-14T10:15:19;28.50;95.40
43607;DHT22;29197;44.788;10.366;2022-08-14T10:18:13;28.70;94.90
43607;DHT22;29197;44.788;10.366;2022-08-14T10:21:07;28.70;94.70
43607;DHT22;29197;44.788;10.366;2022-08-14T10:24:01;28.70;95.20
43607;DHT22;29197;44.788;10.366;2022-08-14T10:26:57;28.70;95.30
43607;DHT22;29197;44.788;10.366;2022-08-14T10:29:48;28.70;94.70
43607;DHT22;29197;44.788;10.366;2022-08-14T10:32:43;28.80;94.30
43607;DHT22;29197;44.788;10.366;2022-08-14T10:35:43;29.00;94.60
43607;DHT22;29197;44.788;10.366;2022-08-14T10:38:35;29.00;94.00
43607;DHT22;29197;44.788;10.366;2022-08-14T10:41:34;29.10;94.00
43607;DHT22;29197;44.788;10.366;2022-08-14T10:47:34;29.20;93.00
43607;DHT22;29197;44.788;10.366;2022-08-14T10:50:44;29.10;93.10
43607;DHT22;29197;44.788;10.366;2022-08-14T10:53:37;29.20;92.80
43607;DHT22;29197;44.788;10.366;2022-08-14T10:56:30;29.20;93.30
43607;DHT22;29197;44.788;10.366;2022-08-14T10:59:21;29.30;93.30
43607;DHT22;29197;44.788;10.366;2022-08-14T11:02:27;29.40;93.10
43607;DHT22;29197;44.788;10.366;2022-08-14T11:05:41;29.70;92.80
43607;DHT22;29197;44.788;10.366;2022-08-14T11:08:34;29.80;92.30
43607;DHT22;29197;44.788;10.366;2022-08-14T11:11:25;29.90;92.20
43607;DHT22;29197;44.788;10.366;2022-08-14T11:14:23;30.00;91.70
43607;DHT22;29197;44.788;10.366;2022-08-14T11:20:10;30.20;91.80
43607;DHT22;29197;44.788;10.366;2022-08-14T11:23:03;30.30;91.90
43607;DHT22;29197;44.788;10.366;2022-08-14T11:25:59;30.40;91.20
43607;DHT22;29197;44.788;10.366;2022-08-14T11:28:54;30.60;90.90
43607;DHT22;29197;44.788;10.366;2022-08-14T11:31:46;30.70;90.90
43607;DHT22;29197;44.788;10.366;2022-08-14T11:34:39;30.80;91.10
43607;DHT22;29197;44.788;10.366;2022-08-14T11:37:29;30.90;90.80
43607;DHT22;29197;44.788;10.366;2022-08-14T11:40:28;31.00;90.70
43607;DHT22;29197;44.788;10.366;2022-08-14T11:43:22;31.00;90.60
43607;DHT22;29197;44.788;10.366;2022-08-14T11:46:17;31.10;90.50
43607;DHT22;29197;44.788;10.366;2022-08-14T11:49:25;31.20;90.30
43607;DHT22;29197;44.788;10.366;2022-08-14T11:52:21;31.50;90.10
43607;DHT22;29197;44.788;10.366;2022-08-14T11:55:31;31.60;89.90
43607;DHT22;29197;44.788;10.366;2022-08-14T11:58:26;31.70;89.30
43607;DHT22;29197;44.788;10.366;2022-08-14T12:01:24;31.90;88.80
43607;DHT22;29197;44.788;10.366;2022-08-14T12:04:16;32.00;88.30
43607;DHT22;29197;44.788;10.366;2022-08-14T12:07:19;32.00;88.30
43607;DHT22;29197;44.788;10.366;2022-08-14T12:13:15;32.20;87.50
43607;DHT22;29197;44.788;10.366;2022-08-14T12:16:11;32.40;86.80
43607;DHT22;29197;44.788;10.366;2022-08-14T12:19:07;32.20;86.90
43607;DHT22;29197;44.788;10.366;2022-08-14T12:21:56;32.10;87.10
43607;DHT22;29197;44.788;10.366;2022-08-14T12:24:50;32.10;87.00
43607;DHT22;29197;44.788;10.366;2022-08-14T12:27:41;32.20;87.00
43607;DHT22;29197;44.788;10.366;2022-08-14T12:30:42;32.50;87.40
43607;DHT22;29197;44.788;10.366;2022-08-14T12:33:33;32.80;86.10
43607;DHT22;29197;44.788;10.366;2022-08-14T12:36:22;33.10;85.70
43607;DHT22;29197;44.788;10.366;2022-08-14T12:39:18;33.30;84.80
43607;DHT22;29197;44.788;10.366;2022-08-14T12:42:08;33.50;84.20
43607;DHT22;29197;44.788;10.366;2022-08-14T12:45:13;33.30;84.20
43607;DHT22;29197;44.788;10.366;2022-08-14T12:51:16;32.70;84.40
43607;DHT22;29197;44.788;10.366;2022-08-14T12:54:13;32.60;84.80
43607;DHT22;29197;44.788;10.366;2022-08-14T12:57:15;32.70;84.60
43607;DHT22;29197;44.788;10.366;2022-08-14T13:00:09;32.80;85.70
43607;DHT22;29197;44.788;10.366;2022-08-14T13:03:22;33.00;84.80
43607;DHT22;29197;44.788;10.366;2022-08-14T13:06:13;33.20;84.10
43607;DHT22;29197;44.788;10.366;2022-08-14T13:09:07;33.30;83.40
43607;DHT22;29197;44.788;10.366;2022-08-14T13:12:01;33.40;83.30
43607;DHT22;29197;44.788;10.366;2022-08-14T13:15:13;33.50;83.90
43607;DHT22;29197;44.788;10.366;2022-08-14T13:18:05;33.60;82.70
43607;DHT22;29197;44.788;10.366;2022-08-14T13:20:57;33.70;83.40
43607;DHT22;29197;44.788;10.366;2022-08-14T13:23:49;33.70;83.20
43607;DHT22;29197;44.788;10.366;2022-08-14T13:26:43;33.70;83.60
43607;DHT22;29197;44.788;10.366;2022-08-14T13:29:39;33.70;83.10
43607;DHT22;29197;44.788;10.366;2022-08-14T13:32:33;33.70;83.20
43607;DHT22;29197;44.788;10.366;2022-08-14T13:35:27;33.50;83.00
43607;DHT22;29197;44.788;10.366;2022-08-14T13:38:18;33.40;83.30
43607;DHT22;29197;44.788;10.366;2022-08-14T13:41:09;33.10;84.10
43607;DHT22;29197;44.788;10.366;2022-08-14T13:44:00;33.10;84.60
43607;DHT22;29197;44.788;10.366;2022-08-14T13:46:50;33.00;84.70
43607;DHT22;29197;44.788;10.366;2022-08-14T13:49:39;33.00;84.50
43607;DHT22;29197;44.788;10.366;2022-08-14T13:52:45;33.00;84.00
43607;DHT22;29197;44.788;10.366;2022-08-14T13:55:46;33.00;84.70
43607;DHT22;29197;44.788;10.366;2022-08-14T13:58:38;33.10;84.30
43607;DHT22;29197;44.788;10.366;2022-08-14T14:01:35;33.30;91.10
43607;DHT22;29197;44.788;10.366;2022-08-14T14:04:30;33.70;84.50
43607;DHT22;29197;44.788;10.366;2022-08-14T14:07:20;33.80;83.40
43607;DHT22;29197;44.788;10.366;2022-08-14T14:10:19;33.80;82.90
43607;DHT22;29197;44.788;10.366;2022-08-14T14:13:15;34.00;82.90
43607;DHT22;29197;44.788;10.366;2022-08-14T14:16:05;34.10;92.90
43607;DHT22;29197;44.788;10.366;2022-08-14T14:19:03;34.20;83.40
43607;DHT22;29197;44.788;10.366;2022-08-14T14:24:46;34.50;99.90
43607;DHT22;29197;44.788;10.366;2022-08-14T14:27:36;34.60;82.60
43607;DHT22;29197;44.788;10.366;2022-08-14T14:30:28;34.40;82.30
43607;DHT22;29197;44.788;10.366;2022-08-14T14:33:42;34.20;82.50
43607;DHT22;29197;44.788;10.366;2022-08-14T14:39:30;33.50;83.00
43607;DHT22;29197;44.788;10.366;2022-08-14T14:42:26;33.30;84.30
43607;DHT22;29197;44.788;10.366;2022-08-14T14:45:19;33.20;84.70
43607;DHT22;29197;44.788;10.366;2022-08-14T14:48:11;33.10;84.50
43607;DHT22;29197;44.788;10.366;2022-08-14T14:51:02;33.10;84.20
43607;DHT22;29197;44.788;10.366;2022-08-14T14:53:53;33.30;83.80
43607;DHT22;29197;44.788;10.366;2022-08-14T14:56:45;33.50;83.40
43607;DHT22;29197;44.788;10.366;2022-08-14T14:59:40;33.60;83.50
43607;DHT22;29197;44.788;10.366;2022-08-14T15:02:33;33.60;83.40
43607;DHT22;29197;44.788;10.366;2022-08-14T15:05:23;33.40;83.60
43607;DHT22;29197;44.788;10.366;2022-08-14T15:08:16;33.10;84.20
43607;DHT22;29197;44.788;10.366;2022-08-14T15:11:26;32.80;84.50
43607;DHT22;29197;44.788;10.366;2022-08-14T15:14:18;32.70;85.50
43607;DHT22;29197;44.788;10.366;2022-08-14T15:17:28;32.90;85.40
43607;DHT22;29197;44.788;10.366;2022-08-14T15:20:28;33.10;84.80
43607;DHT22;29197;44.788;10.366;2022-08-14T15:23:20;33.00;84.10
43607;DHT22;29197;44.788;10.366;2022-08-14T15:26:09;32.80;84.50
43607;DHT22;29197;44.788;10.366;2022-08-14T15:29:19;32.60;85.10
43607;DHT22;29197;44.788;10.366;2022-08-14T15:32:11;32.30;85.50
43607;DHT22;29197;44.788;10.366;2022-08-14T15:35:03;32.20;86.10
43607;DHT22;29197;44.788;10.366;2022-08-14T15:37:54;32.10;86.60
43607;DHT22;29197;44.788;10.366;2022-08-14T15:40:44;32.10;86.60
43607;DHT22;29197;44.788;10.366;2022-08-14T15:43:42;32.20;86.00
43607;DHT22;29197;44.788;10.366;2022-08-14T15:46:33;32.30;86.20
43607;DHT22;29197;44.788;10.366;2022-08-14T15:49:31;32.30;86.40
43607;DHT22;29197;44.788;10.366;2022-08-14T15:52:21;32.40;87.50
43607;DHT22;29197;44.788;10.366;2022-08-14T15:55:21;32.30;85.80
43607;DHT22;29197;44.788;10.366;2022-08-14T15:58:11;32.30;86.40
43607;DHT22;29197;44.788;10.366;2022-08-14T16:01:00;32.30;85.70
43607;DHT22;29197;44.788;10.366;2022-08-14T16:04:31;32.20;85.30
43607;DHT22;29197;44.788;10.366;2022-08-14T16:07:21;32.10;85.70
43607;DHT22;29197;44.788;10.366;2022-08-14T16:10:13;31.90;86.40
43607;DHT22;29197;44.788;10.366;2022-08-14T16:13:17;31.70;86.80
43607;DHT22;29197;44.788;10.366;2022-08-14T16:16:27;31.40;87.60
43607;DHT22;29197;44.788;10.366;2022-08-14T16:19:39;31.30;87.50
43607;DHT22;29197;44.788;10.366;2022-08-14T16:22:32;31.20;87.70
43607;DHT22;29197;44.788;10.366;2022-08-14T16:25:43;31.10;87.70
43607;DHT22;29197;44.788;10.366;2022-08-14T16:28:39;31.00;88.20
43607;DHT22;29197;44.788;10.366;2022-08-14T16:31:30;30.90;88.60
43607;DHT22;29197;44.788;10.366;2022-08-14T16:34:23;30.90;89.10
43607;DHT22;29197;44.788;10.366;2022-08-14T16:37:37;30.80;89.40
43607;DHT22;29197;44.788;10.366;2022-08-14T16:40:30;30.80;90.00
43607;DHT22;29197;44.788;10.366;2022-08-14T16:43:29;30.80;89.90
43607;DHT22;29197;44.788;10.366;2022-08-14T16:46:19;30.80;90.00
43607;DHT22;29197;44.788;10.366;2022-08-14T16:49:11;30.70;90.00
43607;DHT22;29197;44.788;10.366;2022-08-14T16:52:01;30.70;90.20
43607;DHT22;29197;44.788;10.366;2022-08-14T16:55:12;30.70;90.20
43607;DHT22;29197;44.788;10.366;2022-08-14T16:58:04;30.60;90.20
43607;DHT22;29197;44.788;10.366;2022-08-14T17:01:12;30.60;90.40
43607;DHT22;29197;44.788;10.366;2022-08-14T17:04:12;30.50;90.70
43607;DHT22;29197;44.788;10.366;2022-08-14T17:07:12;30.50;91.00
43607;DHT22;29197;44.788;10.366;2022-08-14T17:10:04;30.40;91.10
43607;DHT22;29197;44.788;10.366;2022-08-14T17:13:15;30.40;91.30
43607;DHT22;29197;44.788;10.366;2022-08-14T17:16:07;30.30;91.60
43607;DHT22;29197;44.788;10.366;2022-08-14T17:19:10;30.30;91.70
43607;DHT22;29197;44.788;10.366;2022-08-14T17:22:05;30.30;91.60
43607;DHT22;29197;44.788;10.366;2022-08-14T17:25:00;30.20;91.60
43607;DHT22;29197;44.788;10.366;2022-08-14T17:28:10;30.20;91.50
43607;DHT22;29197;44.788;10.366;2022-08-14T17:31:20;30.20;91.60
43607;DHT22;29197;44.788;10.366;2022-08-14T17:34:47;30.10;91.70
43607;DHT22;29197;44.788;10.366;2022-08-14T17:37:39;30.00;91.80
43607;DHT22;29197;44.788;10.366;2022-08-14T17:40:31;30.00;91.90
43607;DHT22;29197;44.788;10.366;2022-08-14T17:43:28;30.00;92.10
43607;DHT22;29197;44.788;10.366;2022-08-14T17:46:36;30.10;92.30
43607;DHT22;29197;44.788;10.366;2022-08-14T17:49:31;30.00;92.40
43607;DHT22;29197;44.788;10.366;2022-08-14T17:52:21;30.00;92.50
43607;DHT22;29197;44.788;10.366;2022-08-14T17:55:27;30.00;92.30
43607;DHT22;29197;44.788;10.366;2022-08-14T17:58:38;30.00;92.30
43607;DHT22;29197;44.788;10.366;2022-08-14T18:01:28;29.90;92.40
43607;DHT22;29197;44.788;10.366;2022-08-14T18:04:19;29.80;92.40
43607;DHT22;29197;44.788;10.366;2022-08-14T18:07:17;29.90;92.50
43607;DHT22;29197;44.788;10.366;2022-08-14T18:10:29;29.80;92.70
43607;DHT22;29197;44.788;10.366;2022-08-14T18:13:41;29.70;95.10
43607;DHT22;29197;44.788;10.366;2022-08-14T18:16:39;29.70;92.80
43607;DHT22;29197;44.788;10.366;2022-08-14T18:19:35;29.60;92.80
43607;DHT22;29197;44.788;10.366;2022-08-14T18:22:28;29.60;93.00
43607;DHT22;29197;44.788;10.366;2022-08-14T18:25:26;29.60;93.10
43607;DHT22;29197;44.788;10.366;2022-08-14T18:28:16;29.60;93.20
43607;DHT22;29197;44.788;10.366;2022-08-14T18:31:33;29.60;93.20
43607;DHT22;29197;44.788;10.366;2022-08-14T18:34:36;29.50;93.40
43607;DHT22;29197;44.788;10.366;2022-08-14T18:37:37;29.50;93.60
43607;DHT22;29197;44.788;10.366;2022-08-14T18:40:29;29.40;93.80
43607;DHT22;29197;44.788;10.366;2022-08-14T18:43:42;29.40;93.80
43607;DHT22;29197;44.788;10.366;2022-08-14T18:47:22;29.40;93.90
43607;DHT22;29197;44.788;10.366;2022-08-14T18:50:14;29.90;96.60
43607;DHT22;29197;44.788;10.366;2022-08-14T18:53:17;29.30;94.30
43607;DHT22;29197;44.788;10.366;2022-08-14T18:56:11;29.20;94.40
43607;DHT22;29197;44.788;10.366;2022-08-14T18:59:26;29.20;94.60
43607;DHT22;29197;44.788;10.366;2022-08-14T19:02:41;29.20;94.60
43607;DHT22;29197;44.788;10.366;2022-08-14T19:05:55;29.10;94.70
43607;DHT22;29197;44.788;10.366;2022-08-14T19:08:46;29.10;94.90
43607;DHT22;29197;44.788;10.366;2022-08-14T19:11:45;29.10;95.00
43607;DHT22;29197;44.788;10.366;2022-08-14T19:14:44;29.10;95.00
43607;DHT22;29197;44.788;10.366;2022-08-14T19:17:43;29.00;95.50
43607;DHT22;29197;44.788;10.366;2022-08-14T19:20:54;29.00;95.10
43607;DHT22;29197;44.788;10.366;2022-08-14T19:24:04;29.00;95.20
43607;DHT22;29197;44.788;10.366;2022-08-14T19:27:14;29.00;95.20
43607;DHT22;29197;44.788;10.366;2022-08-14T19:30:20;29.00;95.20
43607;DHT22;29197;44.788;10.366;2022-08-14T19:36:45;28.90;95.50
43607;DHT22;29197;44.788;10.366;2022-08-14T19:39:53;28.80;95.60
43607;DHT22;29197;44.788;10.366;2022-08-14T19:42:42;28.70;95.70
43607;DHT22;29197;44.788;10.366;2022-08-14T19:45:33;28.80;95.90
43607;DHT22;29197;44.788;10.366;2022-08-14T19:48:23;28.80;95.90
43607;DHT22;29197;44.788;10.366;2022-08-14T19:51:12;28.80;96.00
43607;DHT22;29197;44.788;10.366;2022-08-14T19:54:03;28.70;96.20
43607;DHT22;29197;44.788;10.366;2022-08-14T19:57:01;28.70;96.20
43607;DHT22;29197;44.788;10.366;2022-08-14T19:59:59;28.60;96.30
43607;DHT22;29197;44.788;10.366;2022-08-14T20:02:57;28.50;96.30
43607;DHT22;29197;44.788;10.366;2022-08-14T20:05:58;28.60;96.40
43607;DHT22;29197;44.788;10.366;2022-08-14T20:08:59;28.60;96.30
43607;DHT22;29197;44.788;10.366;2022-08-14T20:12:18;28.60;96.40
43607;DHT22;29197;44.788;10.366;2022-08-14T20:15:26;28.50;96.50
43607;DHT22;29197;44.788;10.366;2022-08-14T20:18:33;28.50;96.40
43607;DHT22;29197;44.788;10.366;2022-08-14T20:21:36;28.50;96.50
43607;DHT22;29197;44.788;10.366;2022-08-14T20:24:45;28.50;96.90
43607;DHT22;29197;44.788;10.366;2022-08-14T20:27:37;28.50;96.60
43607;DHT22;29197;44.788;10.366;2022-08-14T20:30:30;28.50;96.70